Time;durP1;ratioP1;P1;durP2;ratioP2;P2;SDS_P1;SDS_P2;PMS_P1;PMS_P2;Temp;Humidity;BMP_temperature;BMP_pressure;BME280_temperature;BME280_humidity;BME280_pressure;Samples;Min_cycle;Max_cycle;Signal;HPM_P1;HPM_P2
2023/01/16 00:02:10;;;;;;;21.37;20.57;;;18.90;58.50;;;;;;5031742;28;20444;-60
2023/01/16 00:04:36;;;;;;;20.53;19.83;;;18.90;58.50;;;;;;5031993;28;20928;-60
2023/01/16 00:07:03;;;;;;;21.00;20.20;;;18.90;59.10;;;;;;5032284;28;20441;-58
2023/01/16 00:09:30;;;;;;;21.10;20.30;;;18.80;58.60;;;;;;5031992;28;20477;-57
2023/01/16 00:11:58;;;;;;;20.83;20.03;;;18.80;58.60;;;;;;5031795;28;20445;-60
2023/01/16 00:14:25;;;;;;;20.80;20.10;;;18.80;58.70;;;;;;5032071;28;20524;-58
2023/01/16 00:16:52;;;;;;;21.30;20.50;;;18.80;58.70;;;;;;5031895;28;20867;-57
2023/01/16 00:19:19;;;;;;;20.30;19.60;;;18.80;58.80;;;;;;5031709;28;20452;-60
2023/01/16 00:21:47;;;;;;;20.40;19.70;;;18.70;58.80;;;;;;5031700;28;20851;-59
2023/01/16 00:24:14;;;;;;;21.03;20.23;;;18.70;59.30;;;;;;5031865;28;20484;-58
2023/01/16 00:26:41;;;;;;;20.40;19.70;;;18.70;58.70;;;;;;5031931;28;20497;-60
2023/01/16 00:29:09;;;;;;;20.30;19.60;;;18.70;58.80;;;;;;5031725;28;20507;-57
2023/01/16 00:31:36;;;;;;;20.53;19.83;;;18.70;58.90;;;;;;5031842;28;20999;-56
2023/01/16 00:34:03;;;;;;;20.60;19.80;;;18.60;58.90;;;;;;5031747;28;20527;-58
2023/01/16 00:36:30;;;;;;;20.50;19.80;;;18.60;59.00;;;;;;5031497;28;20575;-59
2023/01/16 00:38:57;;;;;;;21.10;20.00;;;18.60;59.00;;;;;;5031472;28;20540;-57
2023/01/16 00:41:24;;;;;;;20.83;20.13;;;18.60;59.10;;;;;;5031903;28;20445;-58
2023/01/16 00:43:51;;;;;;;20.73;19.73;;;18.60;59.60;;;;;;5031705;28;20523;-59
2023/01/16 00:46:20;;;;;;;20.73;19.93;;;18.50;59.10;;;;;;5031574;28;21001;-60
2023/01/16 00:48:46;;;;;;;20.53;19.80;;;18.50;59.20;;;;;;5031363;28;21005;-59
2023/01/16 00:51:13;;;;;;;23.53;22.73;;;18.50;59.70;;;;;;5031561;28;20580;-59
2023/01/16 00:53:40;;;;;;;20.60;19.90;;;18.50;59.20;;;;;;5031236;28;20489;-59
2023/01/16 00:56:08;;;;;;;20.83;20.13;;;18.50;59.30;;;;;;5031409;28;20579;-60
2023/01/16 00:58:35;;;;;;;20.93;20.13;;;18.50;59.30;;;;;;5031558;28;21023;-59
2023/01/16 01:01:02;;;;;;;20.80;20.10;;;18.40;59.30;;;;;;5031336;28;20453;-59
2023/01/16 01:03:30;;;;;;;20.63;19.93;;;18.40;59.50;;;;;;5031060;28;20549;-57
2023/01/16 01:05:57;;;;;;;20.00;19.30;;;18.40;59.40;;;;;;5031292;28;20457;-58
2023/01/16 01:08:24;;;;;;;20.53;19.83;;;18.40;59.50;;;;;;5033027;28;20445;-59
2023/01/16 01:10:51;;;;;;;20.30;19.60;;;18.40;59.50;;;;;;5035248;28;20444;-58
2023/01/16 01:13:18;;;;;;;20.00;19.30;;;18.30;59.50;;;;;;5035416;28;20449;-59
2023/01/16 01:15:45;;;;;;;19.90;19.20;;;18.30;59.50;;;;;;5034973;28;20583;-58
2023/01/16 01:18:12;;;;;;;20.50;19.80;;;18.30;59.60;;;;;;5035144;28;20536;-59
2023/01/16 01:20:40;;;;;;;20.60;19.80;;;18.30;59.70;;;;;;5035069;28;20452;-59
2023/01/16 01:23:07;;;;;;;21.37;20.37;;;18.30;59.70;;;;;;5035090;28;20441;-60
2023/01/16 01:25:34;;;;;;;20.50;19.80;;;18.30;59.80;;;;;;5035022;28;20548;-59
2023/01/16 01:28:01;;;;;;;20.73;19.93;;;18.30;59.80;;;;;;5035073;28;20879;-58
2023/01/16 01:30:28;;;;;;;20.30;19.60;;;18.30;59.90;;;;;;5034682;28;20539;-57
2023/01/16 01:32:55;;;;;;;20.60;19.90;;;18.20;59.90;;;;;;5035031;28;20479;-60
2023/01/16 01:35:21;;;;;;;20.50;19.80;;;18.20;59.90;;;;;;5034622;28;20469;-57
2023/01/16 01:37:50;;;;;;;21.00;20.20;;;18.20;59.80;;;;;;5034794;28;20540;-58
2023/01/16 01:40:17;;;;;;;21.13;20.40;;;18.20;59.90;;;;;;5034769;28;20485;-57
2023/01/16 01:42:46;;;;;;;20.50;19.80;;;18.20;60.00;;;;;;5034849;28;20455;-59
2023/01/16 01:45:17;;;;;;;20.50;19.80;;;18.20;60.00;;;;;;5034505;28;20900;-58
2023/01/16 01:47:49;;;;;;;20.57;19.87;;;18.10;59.90;;;;;;5034731;28;20441;-57
2023/01/16 01:50:22;;;;;;;20.40;19.70;;;18.10;60.00;;;;;;5034418;28;20445;-58
2023/01/16 01:52:52;;;;;;;20.50;19.80;;;18.10;60.00;;;;;;5034763;28;20451;-57
2023/01/16 01:55:21;;;;;;;20.77;20.03;;;18.10;60.20;;;;;;5034417;28;20471;-58
2023/01/16 01:57:52;;;;;;;20.67;19.97;;;18.10;61.00;;;;;;5034402;28;20457;-59
2023/01/16 02:00:21;;;;;;;20.70;20.00;;;18.10;60.20;;;;;;5034144;28;20449;-58
2023/01/16 02:02:52;;;;;;;20.17;19.47;;;18.10;60.20;;;;;;5034521;28;20453;-56
2023/01/16 02:05:25;;;;;;;20.10;19.40;;;18.00;60.10;;;;;;5034339;28;20814;-59
2023/01/16 02:07:54;;;;;;;20.30;19.60;;;18.00;60.20;;;;;;5034113;28;20447;-61
2023/01/16 02:10:28;;;;;;;20.77;20.03;;;18.00;60.20;;;;;;5033801;28;20449;-55
2023/01/16 02:12:55;;;;;;;20.40;19.70;;;18.00;60.20;;;;;;5034239;28;20446;-57
2023/01/16 02:15:23;;;;;;;20.50;19.80;;;18.00;60.30;;;;;;5034051;28;20469;-56
2023/01/16 02:20:47;;;;;;;20.30;19.60;;;18.00;60.30;;;;;;5032922;28;21547;-60
2023/01/16 02:23:50;;;;;;;20.47;19.70;;;17.90;60.10;;;;;;5033350;28;20829;-56
2023/01/16 02:26:52;;;;;;;20.40;19.63;;;17.90;60.20;;;;;;5033910;28;20514;-59
2023/01/16 02:29:57;;;;;;;20.20;19.50;;;18.00;60.40;;;;;;5033631;28;20520;-57
2023/01/16 02:32:41;;;;;;;19.50;18.90;;;17.90;60.40;;;;;;5031452;28;20436;-59
2023/01/16 02:35:22;;;;;;;19.47;18.87;;;17.90;60.50;;;;;;5033728;28;20472;-56
2023/01/16 02:37:54;;;;;;;19.90;19.20;;;17.90;60.50;;;;;;5033784;28;20429;-57
2023/01/16 02:40:34;;;;;;;20.30;19.60;;;17.90;60.50;;;;;;5033477;28;20532;-57
2023/01/16 02:43:11;;;;;;;19.87;19.17;;;17.80;60.30;;;;;;5033526;28;20441;-58
2023/01/16 02:45:47;;;;;;;19.87;19.17;;;17.80;60.30;;;;;;5033491;28;20479;-59
2023/01/16 02:48:24;;;;;;;19.63;18.93;;;17.90;60.50;;;;;;5033481;28;20455;-59
2023/01/16 02:50:59;;;;;;;19.93;19.23;;;17.80;60.40;;;;;;5033309;28;20496;-60
2023/01/16 02:53:30;;;;;;;20.00;19.30;;;17.80;60.30;;;;;;5033404;28;20444;-58
2023/01/16 02:56:03;;;;;;;20.33;19.63;;;17.80;60.40;;;;;;5032904;28;20481;-57
2023/01/16 02:58:32;;;;;;;20.30;19.60;;;17.80;60.40;;;;;;5033242;28;20527;-59
2023/01/16 03:01:00;;;;;;;19.90;19.20;;;17.80;60.50;;;;;;5033182;28;20863;-58
2023/01/16 03:03:40;;;;;;;20.60;19.80;;;17.80;60.50;;;;;;5033163;28;20850;-59
2023/01/16 03:06:26;;;;;;;20.60;19.90;;;17.80;60.50;;;;;;5032710;28;20473;-57
2023/01/16 03:09:03;;;;;;;20.40;19.70;;;17.80;60.50;;;;;;5033245;28;20947;-58
2023/01/16 03:11:36;;;;;;;21.20;20.20;;;17.70;60.50;;;;;;5033223;28;20459;-55
2023/01/16 03:14:16;;;;;;;20.10;19.30;;;17.80;60.60;;;;;;5033143;28;20445;-58
2023/01/16 03:16:51;;;;;;;20.40;19.70;;;17.80;60.50;;;;;;5032647;28;20491;-58
2023/01/16 03:19:32;;;;;;;20.80;20.00;;;17.70;60.40;;;;;;5032841;28;20539;-59
2023/01/16 03:22:12;;;;;;;21.30;20.40;;;17.70;60.50;;;;;;5033010;28;20437;-56
2023/01/16 03:24:54;;;;;;;20.40;19.70;;;17.70;60.60;;;;;;5032702;28;20487;-55
2023/01/16 03:27:32;;;;;;;20.80;20.10;;;17.70;60.50;;;;;;5032290;28;20447;-56
2023/01/16 03:30:09;;;;;;;20.60;19.90;;;17.70;61.30;;;;;;5032434;28;20445;-57
2023/01/16 03:32:41;;;;;;;20.67;19.87;;;17.70;60.60;;;;;;5032593;28;20540;-59
2023/01/16 03:35:15;;;;;;;20.40;19.70;;;17.70;60.60;;;;;;5032784;28;20472;-57
2023/01/16 03:37:48;;;;;;;20.40;19.70;;;17.60;60.60;;;;;;5032241;28;20566;-54
2023/01/16 03:40:19;;;;;;;20.70;20.00;;;17.60;60.50;;;;;;5032530;28;20449;-59
2023/01/16 03:42:53;;;;;;;20.50;19.80;;;17.60;60.60;;;;;;5032838;28;20445;-55
2023/01/16 03:45:23;;;;;;;20.73;20.03;;;17.60;60.60;;;;;;5032327;28;20838;-56
2023/01/16 03:47:55;;;;;;;20.60;19.90;;;17.60;60.70;;;;;;5032567;28;20437;-58
2023/01/16 03:50:27;;;;;;;20.70;20.00;;;17.60;60.70;;;;;;5031974;28;20456;-56
2023/01/16 03:52:59;;;;;;;20.37;19.67;;;17.60;60.70;;;;;;5032575;28;20453;-54
2023/01/16 03:55:31;;;;;;;20.40;19.73;;;17.60;60.70;;;;;;5032601;28;20563;-56
2023/01/16 03:58:04;;;;;;;20.43;19.73;;;17.60;60.70;;;;;;5032538;28;20905;-55
2023/01/16 04:00:40;;;;;;;20.87;20.17;;;17.60;60.70;;;;;;5031693;28;20538;-56
2023/01/16 04:03:11;;;;;;;20.90;20.10;;;17.60;60.90;;;;;;5032293;28;20973;-58
2023/01/16 04:05:49;;;;;;;21.23;20.43;;;17.50;60.70;;;;;;5032236;28;20464;-59
2023/01/16 04:08:20;;;;;;;20.47;19.77;;;17.50;60.80;;;;;;5032509;28;20444;-58
2023/01/16 04:10:50;;;;;;;20.30;19.60;;;17.50;60.90;;;;;;5031857;28;20452;-58
2023/01/16 04:13:20;;;;;;;21.23;20.33;;;17.50;60.90;;;;;;5031798;28;20455;-56
2023/01/16 04:15:52;;;;;;;21.13;20.43;;;17.50;61.00;;;;;;5032117;28;20548;-58
2023/01/16 04:18:20;;;;;;;21.47;20.77;;;17.50;61.10;;;;;;5031983;28;20949;-56
2023/01/16 04:20:50;;;;;;;21.10;20.30;;;17.50;61.10;;;;;;5031462;28;20448;-56
2023/01/16 04:23:17;;;;;;;20.60;19.90;;;17.50;61.20;;;;;;5032167;28;20859;-58
2023/01/16 04:25:45;;;;;;;21.00;20.20;;;17.50;61.30;;;;;;5031500;28;20571;-59
2023/01/16 04:28:12;;;;;;;21.20;20.50;;;17.50;61.20;;;;;;5031812;28;20524;-58
2023/01/16 04:30:39;;;;;;;20.80;20.10;;;17.50;61.30;;;;;;5031756;28;20542;-58
2023/01/16 04:33:06;;;;;;;20.70;19.90;;;17.50;61.30;;;;;;5032020;28;20484;-56
2023/01/16 04:35:34;;;;;;;20.77;20.07;;;17.50;61.20;;;;;;5031787;28;20465;-58
2023/01/16 04:38:02;;;;;;;20.40;19.70;;;17.40;61.10;;;;;;5031305;28;20482;-57
2023/01/16 04:40:29;;;;;;;20.40;19.70;;;17.40;61.20;;;;;;5031758;28;20528;-58
2023/01/16 04:42:56;;;;;;;20.80;20.10;;;17.40;61.10;;;;;;5032550;28;21145;-57
2023/01/16 04:45:23;;;;;;;21.67;20.87;;;17.40;61.10;;;;;;5035572;28;20556;-57
2023/01/16 04:47:51;;;;;;;21.10;20.30;;;17.40;61.00;;;;;;5035833;28;20886;-58
2023/01/16 04:50:19;;;;;;;22.37;20.73;;;17.40;60.90;;;;;;5035118;28;20510;-59
2023/01/16 04:52:47;;;;;;;20.50;19.80;;;17.40;60.90;;;;;;5035649;28;20533;-56
2023/01/16 04:55:15;;;;;;;21.30;20.50;;;17.40;61.00;;;;;;5035510;28;20460;-58
2023/01/16 04:57:43;;;;;;;21.03;20.03;;;17.40;61.20;;;;;;5035540;28;21001;-58
2023/01/16 05:00:12;;;;;;;22.00;21.20;;;17.40;61.30;;;;;;5035237;28;20459;-58
2023/01/16 05:02:39;;;;;;;22.03;21.23;;;17.40;61.40;;;;;;5035425;28;20444;-58
2023/01/16 05:05:06;;;;;;;22.50;21.70;;;17.40;61.80;;;;;;5035338;28;20503;-58
2023/01/16 05:07:33;;;;;;;22.83;21.57;;;17.40;61.90;;;;;;5035276;28;20445;-58
2023/01/16 05:10:00;;;;;;;23.40;22.50;;;17.40;62.00;;;;;;5035379;28;20449;-58
2023/01/16 05:12:29;;;;;;;22.70;21.90;;;17.40;62.00;;;;;;5035221;28;20455;-58
2023/01/16 05:14:56;;;;;;;23.53;22.73;;;17.40;62.00;;;;;;5034895;28;20468;-57
2023/01/16 05:17:24;;;;;;;23.20;22.20;;;17.30;61.90;;;;;;5034334;28;21069;-59
2023/01/16 05:19:52;;;;;;;23.20;22.10;;;17.40;62.00;;;;;;5034954;28;20448;-60
2023/01/16 05:22:19;;;;;;;22.67;21.87;;;17.40;62.10;;;;;;5035671;28;20532;-59
2023/01/16 05:24:46;;;;;;;22.70;21.90;;;17.40;62.00;;;;;;5035677;28;20539;-57
2023/01/16 05:27:13;;;;;;;22.80;21.90;;;17.30;61.90;;;;;;5036560;28;20524;-60
2023/01/16 05:29:42;;;;;;;22.50;21.70;;;17.30;61.90;;;;;;5052137;28;20477;-60
2023/01/16 05:32:08;;;;;;;22.93;22.03;;;17.30;61.90;;;;;;5052550;28;20476;-60
2023/01/16 05:34:35;;;;;;;22.67;21.77;;;17.30;61.80;;;;;;5052943;28;20476;-58
2023/01/16 05:37:02;;;;;;;21.90;21.10;;;17.30;61.90;;;;;;5052622;28;20508;-59
2023/01/16 05:39:29;;;;;;;21.93;21.13;;;17.30;61.90;;;;;;5052935;28;20449;-60
2023/01/16 05:41:57;;;;;;;22.40;21.60;;;17.30;61.90;;;;;;5049353;28;20452;-57
2023/01/16 05:44:23;;;;;;;21.97;21.17;;;17.30;62.00;;;;;;5034839;28;20448;-58
2023/01/16 05:46:52;;;;;;;23.50;22.40;;;17.30;62.00;;;;;;5034919;28;20500;-58
2023/01/16 05:49:19;;;;;;;23.20;22.30;;;17.30;62.00;;;;;;5034666;28;20464;-54
2023/01/16 05:51:46;;;;;;;22.97;22.07;;;17.30;62.00;;;;;;5034981;28;20457;-58
2023/01/16 05:54:14;;;;;;;23.63;22.73;;;17.30;62.00;;;;;;5033793;28;20452;-58
2023/01/16 05:56:40;;;;;;;23.77;22.87;;;17.30;61.90;;;;;;5034204;28;20500;-59
2023/01/16 05:59:10;;;;;;;24.90;23.60;;;17.30;61.60;;;;;;5034551;28;20503;-58
2023/01/16 06:01:36;;;;;;;25.00;24.03;;;17.30;61.60;;;;;;5034611;28;20535;-58
2023/01/16 06:04:05;;;;;;;25.17;23.77;;;17.30;62.50;;;;;;5033618;28;22150;-59
2023/01/16 06:06:32;;;;;;;26.63;24.50;;;17.30;63.10;;;;;;5034255;28;20464;-63
2023/01/16 06:08:58;;;;;;;25.53;24.10;;;17.30;65.80;;;;;;5034046;28;20524;-60
2023/01/16 06:11:25;;;;;;;25.80;24.40;;;17.30;68.20;;;;;;5034128;28;20536;-57
2023/01/16 06:13:52;;;;;;;27.40;25.70;;;17.40;72.20;;;;;;5034195;28;21011;-59
2023/01/16 06:16:19;;;;;;;27.33;25.10;;;17.30;71.90;;;;;;5034084;28;20893;-58
2023/01/16 06:18:46;;;;;;;27.63;25.57;;;17.30;70.70;;;;;;5033981;28;20481;-57
2023/01/16 06:21:14;;;;;;;29.40;27.07;;;17.40;69.90;;;;;;5034038;28;20451;-55
2023/01/16 06:23:41;;;;;;;26.27;24.73;;;17.40;69.20;;;;;;5034162;28;20456;-57
2023/01/16 06:26:09;;;;;;;24.83;23.50;;;17.30;68.80;;;;;;5034013;28;20469;-57
2023/01/16 06:28:36;;;;;;;25.60;24.27;;;17.40;68.70;;;;;;5034055;28;20449;-58
2023/01/16 06:31:04;;;;;;;28.63;26.60;;;17.40;68.50;;;;;;5033790;28;20472;-57
2023/01/16 06:33:31;;;;;;;26.60;24.83;;;17.40;68.10;;;;;;5034146;28;20439;-56
2023/01/16 06:35:57;;;;;;;25.70;24.10;;;17.30;67.70;;;;;;5034048;28;20473;-57
2023/01/16 06:38:26;;;;;;;26.47;24.80;;;17.30;67.50;;;;;;5034071;28;20491;-58
2023/01/16 06:40:55;;;;;;;26.03;24.50;;;17.30;67.10;;;;;;5033907;28;20451;-56
2023/01/16 06:43:23;;;;;;;25.40;23.90;;;17.30;67.00;;;;;;5034238;28;20456;-58
2023/01/16 06:45:50;;;;;;;26.10;24.97;;;17.40;66.70;;;;;;5034379;28;20495;-59
2023/01/16 06:48:17;;;;;;;24.67;23.40;;;17.30;66.20;;;;;;5034295;28;20448;-59
2023/01/16 06:50:43;;;;;;;26.77;24.87;;;17.30;66.30;;;;;;5033726;28;21126;-59
2023/01/16 06:53:10;;;;;;;25.47;24.27;;;17.30;66.00;;;;;;5033882;28;20467;-58
2023/01/16 06:55:39;;;;;;;26.60;25.00;;;17.40;65.60;;;;;;5034056;28;20488;-57
2023/01/16 06:58:06;;;;;;;25.13;23.77;;;17.30;65.60;;;;;;5033963;28;21125;-57
2023/01/16 07:00:33;;;;;;;24.53;23.20;;;17.40;65.60;;;;;;5033550;28;20463;-57
2023/01/16 07:03:01;;;;;;;25.50;24.20;;;17.40;65.30;;;;;;5033893;28;20453;-59
2023/01/16 07:05:30;;;;;;;26.73;24.90;;;17.30;64.90;;;;;;5033440;28;21000;-58
2023/01/16 07:07:57;;;;;;;25.23;23.53;;;17.30;64.80;;;;;;5033831;28;20442;-57
2023/01/16 07:10:25;;;;;;;25.07;23.87;;;17.40;64.70;;;;;;5033645;28;20449;-57
2023/01/16 07:12:53;;;;;;;26.37;24.77;;;17.40;64.60;;;;;;5033437;28;20437;-56
2023/01/16 07:23:41;;;;;;;26.47;25.17;;;17.40;63.80;;;;;;5033777;28;20922;-59
2023/01/16 07:26:10;;;;;;;24.53;23.53;;;17.40;63.70;;;;;;5033876;28;20467;-60
2023/01/16 07:28:38;;;;;;;25.47;23.90;;;17.30;63.50;;;;;;5033605;28;20541;-58
2023/01/16 07:31:07;;;;;;;25.47;23.57;;;17.30;63.30;;;;;;5033435;28;20531;-58
2023/01/16 07:33:34;;;;;;;25.10;23.83;;;17.30;63.40;;;;;;5033754;28;20504;-58
2023/01/16 07:36:01;;;;;;;24.40;23.40;;;17.30;63.20;;;;;;5033907;28;20473;-56
2023/01/16 07:38:28;;;;;;;23.40;22.40;;;17.40;63.30;;;;;;5033942;28;20913;-58
2023/01/16 07:40:55;;;;;;;25.50;24.13;;;17.30;62.90;;;;;;5033524;28;20524;-57
2023/01/16 07:43:21;;;;;;;25.43;23.80;;;17.40;63.10;;;;;;5033376;28;20532;-57
2023/01/16 07:45:52;;;;;;;25.60;24.30;;;17.40;62.80;;;;;;5033258;28;20481;-60
2023/01/16 07:48:19;;;;;;;25.63;24.40;;;17.30;62.60;;;;;;5033046;28;20946;-58
2023/01/16 07:50:51;;;;;;;25.90;24.60;;;17.30;62.70;;;;;;5032677;28;20455;-57
2023/01/16 07:53:21;;;;;;;26.50;25.30;;;17.30;62.50;;;;;;5032732;28;20453;-59
2023/01/16 07:55:48;;;;;;;25.37;24.37;;;17.40;62.40;;;;;;5033216;28;20477;-60
2023/01/16 07:58:15;;;;;;;25.50;24.40;;;17.30;62.30;;;;;;5032668;28;20516;-60
2023/01/16 08:00:42;;;;;;;25.40;24.30;;;17.30;62.20;;;;;;5033070;28;20551;-59
2023/01/16 08:03:10;;;;;;;25.13;24.13;;;17.30;62.10;;;;;;5032864;28;20535;-60
2023/01/16 08:05:37;;;;;;;25.33;24.23;;;17.30;62.10;;;;;;5032922;28;20469;-56
2023/01/16 08:08:04;;;;;;;24.47;23.47;;;17.30;62.10;;;;;;5032731;28;20445;-58
2023/01/16 08:10:31;;;;;;;24.63;23.63;;;17.30;61.80;;;;;;5032237;28;20452;-58
2023/01/16 08:12:58;;;;;;;25.80;24.67;;;17.30;61.80;;;;;;5032627;28;20535;-59
2023/01/16 08:15:25;;;;;;;25.57;24.30;;;17.30;61.70;;;;;;5032570;28;20568;-58
2023/01/16 08:17:52;;;;;;;25.73;24.27;;;17.30;61.80;;;;;;5031790;28;20484;-58
2023/01/16 08:20:20;;;;;;;24.67;23.70;;;17.30;61.80;;;;;;5032675;28;20453;-57
2023/01/16 08:22:50;;;;;;;25.77;24.47;;;17.30;61.60;;;;;;5033074;28;20449;-59
2023/01/16 08:25:18;;;;;;;25.87;24.77;;;17.30;61.50;;;;;;5032698;28;20473;-59
2023/01/16 08:27:45;;;;;;;24.83;23.73;;;17.30;61.50;;;;;;5032585;28;20447;-58
2023/01/16 08:30:13;;;;;;;25.00;23.90;;;17.30;61.50;;;;;;5032258;28;20967;-59
2023/01/16 08:32:40;;;;;;;25.53;24.00;;;17.30;61.40;;;;;;5032743;28;20448;-57
2023/01/16 08:35:08;;;;;;;24.23;23.23;;;17.30;61.20;;;;;;5032464;28;20556;-59
2023/01/16 08:37:36;;;;;;;24.50;23.50;;;17.30;61.10;;;;;;5032214;28;20480;-59
2023/01/16 08:40:04;;;;;;;24.10;23.07;;;17.30;61.20;;;;;;5032137;28;20885;-59
2023/01/16 08:53:34;;;;;;;25.20;24.03;;;17.30;60.90;;;;;;5032110;28;20968;-58
2023/01/16 08:56:00;;;;;;;24.47;23.37;;;17.30;60.90;;;;;;5032128;28;20463;-60
2023/01/16 08:58:27;;;;;;;23.37;22.37;;;17.30;60.90;;;;;;5032168;28;20575;-58
2023/01/16 09:00:54;;;;;;;24.10;23.20;;;17.30;60.80;;;;;;5031992;28;20867;-57
2023/01/16 09:03:21;;;;;;;24.60;23.60;;;17.30;60.80;;;;;;5032171;28;20941;-57
2023/01/16 09:05:48;;;;;;;24.40;23.40;;;17.20;60.50;;;;;;5032304;28;20501;-57
2023/01/16 09:08:14;;;;;;;25.47;24.27;;;17.30;60.60;;;;;;5032415;28;20441;-56
2023/01/16 09:13:48;;;;;;;24.30;23.30;;;17.30;60.50;;;;;;5031994;28;20536;-58
2023/01/16 09:16:14;;;;;;;23.90;23.00;;;17.30;60.30;;;;;;5032381;28;20491;-57
2023/01/16 09:18:40;;;;;;;23.93;23.03;;;17.20;60.10;;;;;;5032010;28;20568;-57
2023/01/16 09:21:07;;;;;;;24.80;23.80;;;17.30;60.20;;;;;;5032023;28;20557;-58
2023/01/16 09:23:34;;;;;;;24.20;23.20;;;17.20;60.10;;;;;;5031934;28;20464;-58
2023/01/16 09:26:02;;;;;;;24.77;23.40;;;17.20;60.70;;;;;;5031823;28;21037;-58
2023/01/16 09:28:29;;;;;;;24.80;23.70;;;17.20;60.00;;;;;;5032297;28;20822;-60
2023/01/16 09:30:56;;;;;;;24.80;23.70;;;17.30;60.00;;;;;;5035464;28;20443;-59
2023/01/16 09:33:23;;;;;;;24.30;23.40;;;17.20;59.90;;;;;;5035721;28;20556;-60
2023/01/16 09:35:50;;;;;;;23.77;22.87;;;17.20;59.80;;;;;;5035852;28;20468;-58
2023/01/16 09:38:17;;;;;;;23.97;23.00;;;17.30;59.90;;;;;;5035685;28;20878;-59
2023/01/16 09:40:49;;;;;;;24.43;23.43;;;17.20;59.70;;;;;;5035198;28;20441;-59
2023/01/16 09:43:35;;;;;;;24.47;23.07;;;17.30;59.80;;;;;;5035570;28;20452;-59
2023/01/16 09:46:06;;;;;;;24.70;23.70;;;17.20;59.70;;;;;;5035445;28;21002;-59
2023/01/16 09:48:34;;;;;;;24.50;23.50;;;17.20;59.70;;;;;;5035455;28;20447;-59
2023/01/16 09:51:05;;;;;;;23.90;23.00;;;17.20;59.70;;;;;;5035206;28;20472;-60
2023/01/16 09:59:24;;;;;;;23.80;22.80;;;17.20;59.60;;;;;;5034968;28;20475;-59
2023/01/16 10:01:56;;;;;;;24.37;23.37;;;17.20;59.60;;;;;;5035145;28;20981;-59
2023/01/16 10:04:25;;;;;;;23.90;23.00;;;17.20;59.60;;;;;;5035437;28;20500;-61
2023/01/16 10:07:07;;;;;;;23.97;23.00;;;17.20;59.60;;;;;;5035952;28;20879;-58
2023/01/16 10:09:41;;;;;;;23.70;22.80;;;17.20;59.50;;;;;;5035024;28;20451;-60
2023/01/16 10:12:12;;;;;;;24.23;23.33;;;17.20;59.50;;;;;;5035093;28;20512;-59
2023/01/16 10:15:09;;;;;;;24.50;23.60;;;17.20;59.50;;;;;;5035333;28;20456;-56
2023/01/16 10:17:45;;;;;;;23.50;22.60;;;17.20;59.40;;;;;;5035322;28;20532;-56
2023/01/16 10:20:44;;;;;;;24.00;22.90;;;17.20;59.40;;;;;;5034756;28;20787;-58
2023/01/16 10:23:26;;;;;;;23.50;22.40;;;17.20;59.40;;;;;;5012205;28;20461;-57
2023/01/16 10:26:01;;;;;;;24.07;23.17;;;17.20;59.40;;;;;;5034853;28;21005;-58
2023/01/16 10:28:42;;;;;;;24.33;23.43;;;17.20;59.40;;;;;;5034931;28;20528;-59
2023/01/16 10:31:18;;;;;;;24.27;23.37;;;17.20;59.30;;;;;;5035061;28;20449;-59
2023/01/16 10:33:49;;;;;;;24.33;23.43;;;17.20;59.30;;;;;;5034900;28;20449;-58
2023/01/16 10:36:20;;;;;;;24.77;23.80;;;17.20;59.30;;;;;;5034542;28;20554;-58
2023/01/16 10:38:54;;;;;;;23.93;23.03;;;17.10;59.20;;;;;;5034396;28;20487;-58
2023/01/16 10:49:55;;;;;;;24.20;23.20;;;17.20;59.10;;;;;;5034166;28;20579;-57
2023/01/16 10:52:22;;;;;;;24.23;23.33;;;17.20;59.10;;;;;;5034246;28;20802;-58
2023/01/16 10:54:49;;;;;;;24.30;23.30;;;17.10;59.10;;;;;;5033837;28;20527;-57
2023/01/16 10:57:18;;;;;;;23.67;22.53;;;17.10;59.10;;;;;;5033855;28;20531;-58
2023/01/16 10:59:47;;;;;;;25.03;23.93;;;17.10;59.00;;;;;;5033485;28;20485;-57
2023/01/16 11:02:22;;;;;;;24.40;23.40;;;17.10;59.00;;;;;;5033624;28;20806;-56
2023/01/16 11:04:49;;;;;;;24.43;23.53;;;17.10;59.00;;;;;;5033907;28;20519;-57
2023/01/16 11:07:18;;;;;;;25.13;24.23;;;17.10;58.90;;;;;;5034175;28;20492;-57
2023/01/16 11:09:46;;;;;;;26.37;25.27;;;17.10;58.90;;;;;;5033719;28;20445;-58
2023/01/16 11:20:45;;;;;;;24.33;23.33;;;17.10;58.90;;;;;;5034041;28;20421;-58
2023/01/16 11:23:17;;;;;;;24.90;24.00;;;17.10;58.80;;;;;;5033932;28;20445;-58
2023/01/16 11:25:46;;;;;;;24.90;23.90;;;17.10;58.90;;;;;;5033720;28;20469;-59
2023/01/16 11:28:18;;;;;;;25.10;24.10;;;17.10;58.80;;;;;;5033519;28;20451;-59
2023/01/16 11:30:47;;;;;;;25.77;24.77;;;17.10;58.80;;;;;;5033221;28;20536;-59
2023/01/16 11:33:19;;;;;;;26.30;25.20;;;17.10;58.80;;;;;;5033392;28;20958;-58
2023/01/16 11:35:54;;;;;;;24.40;23.50;;;17.10;58.80;;;;;;5033117;28;20473;-57
2023/01/16 11:38:22;;;;;;;24.00;23.10;;;17.10;58.70;;;;;;5033429;28;20502;-58
2023/01/16 11:40:50;;;;;;;24.00;23.10;;;17.10;58.70;;;;;;5033038;28;20447;-59
2023/01/16 11:46:22;;;;;;;24.27;23.30;;;17.10;58.60;;;;;;5032822;28;20460;-58
2023/01/16 11:48:54;;;;;;;24.77;23.87;;;17.10;58.60;;;;;;5032846;28;20805;-57
2023/01/16 11:51:25;;;;;;;24.50;23.50;;;17.10;58.60;;;;;;5033015;28;20455;-57
2023/01/16 11:53:54;;;;;;;24.00;23.10;;;17.10;58.60;;;;;;5032804;28;20452;-58
2023/01/16 11:56:45;;;;;;;23.90;22.90;;;17.10;58.60;;;;;;5032912;28;20475;-57
2023/01/16 11:59:50;;;;;;;24.03;23.13;;;17.10;58.60;;;;;;5014155;28;20485;-58
2023/01/16 12:02:28;;;;;;;23.20;22.30;;;17.10;58.50;;;;;;5032780;28;20542;-58
2023/01/16 12:08:04;;;;;;;24.57;23.57;;;17.10;58.50;;;;;;5033381;28;20445;-57
2023/01/16 12:10:41;;;;;;;24.40;23.50;;;17.10;58.50;;;;;;5032769;28;20452;-58
2023/01/16 12:16:16;;;;;;;22.87;21.97;;;17.10;58.50;;;;;;5023028;28;20441;-59
2023/01/16 12:18:56;;;;;;;23.00;22.10;;;17.10;58.50;;;;;;5032734;28;20480;-57
2023/01/16 12:21:35;;;;;;;23.50;22.60;;;17.10;58.50;;;;;;5032509;28;20459;-57
2023/01/16 12:24:27;;;;;;;23.23;22.33;;;17.10;58.40;;;;;;5032866;28;20451;-59
2023/01/16 12:27:09;;;;;;;23.13;22.23;;;17.10;58.40;;;;;;5032767;28;21106;-59
2023/01/16 12:29:49;;;;;;;23.70;22.80;;;17.10;58.40;;;;;;5032724;28;20476;-57
2023/01/16 12:32:37;;;;;;;24.30;23.40;;;17.10;58.40;;;;;;5032709;28;20446;-58
2023/01/16 12:35:16;;;;;;;24.87;23.87;;;17.10;58.30;;;;;;5030552;28;20480;-60
2023/01/16 12:37:59;;;;;;;24.60;23.60;;;17.10;58.30;;;;;;5032678;28;20441;-61
2023/01/16 12:40:35;;;;;;;24.80;23.80;;;17.10;58.30;;;;;;5032185;28;20503;-60
2023/01/16 12:43:18;;;;;;;24.50;23.50;;;17.00;58.20;;;;;;5032679;28;20445;-58
2023/01/16 12:45:50;;;;;;;24.13;23.13;;;17.10;58.30;;;;;;5032255;28;20508;-59
2023/01/16 12:48:36;;;;;;;24.50;23.50;;;17.10;58.30;;;;;;5032551;28;20501;-58
2023/01/16 12:51:13;;;;;;;24.17;23.17;;;17.10;58.30;;;;;;5032059;28;20550;-60
2023/01/16 12:54:15;;;;;;;25.77;24.77;;;17.10;58.30;;;;;;5032401;28;20802;-60
2023/01/16 12:56:57;;;;;;;25.27;24.27;;;17.10;58.20;;;;;;5032530;28;20547;-60
2023/01/16 12:59:29;;;;;;;24.20;23.20;;;17.10;58.30;;;;;;5032171;28;20488;-59
2023/01/16 13:02:05;;;;;;;24.90;23.90;;;17.00;58.20;;;;;;5032309;28;20511;-57
2023/01/16 13:04:38;;;;;;;23.00;22.10;;;17.00;58.20;;;;;;5034374;28;20871;-56
2023/01/16 13:07:07;;;;;;;24.60;23.60;;;17.00;58.20;;;;;;5036587;28;20441;-58
2023/01/16 13:09:40;;;;;;;24.50;23.50;;;17.10;58.20;;;;;;5036042;28;20926;-57
2023/01/16 13:15:09;;;;;;;24.07;23.17;;;17.00;58.20;;;;;;5036438;28;20435;-56
2023/01/16 13:17:43;;;;;;;23.73;22.83;;;17.00;58.10;;;;;;5036217;28;20477;-58
2023/01/16 13:20:13;;;;;;;23.87;22.97;;;17.00;58.10;;;;;;5035851;28;20491;-59
2023/01/16 13:22:46;;;;;;;25.00;24.00;;;17.00;58.10;;;;;;5036050;28;20455;-57
2023/01/16 13:25:21;;;;;;;24.40;23.40;;;17.00;58.10;;;;;;5035519;28;20463;-58
2023/01/16 13:27:54;;;;;;;23.60;22.70;;;17.00;58.10;;;;;;5035679;28;20441;-58
2023/01/16 13:30:21;;;;;;;23.97;23.03;;;17.00;58.10;;;;;;5035457;28;20441;-57
2023/01/16 13:32:54;;;;;;;24.90;23.90;;;17.00;58.10;;;;;;5035806;28;20449;-59
2023/01/16 13:35:23;;;;;;;24.27;23.37;;;17.00;58.10;;;;;;5035244;28;20469;-58
2023/01/16 13:38:07;;;;;;;25.17;24.17;;;17.00;58.00;;;;;;5035437;28;20544;-59
2023/01/16 13:41:12;;;;;;;23.90;22.97;;;17.00;58.10;;;;;;5035122;28;20571;-60
2023/01/16 13:46:29;;;;;;;24.60;23.60;;;17.00;58.00;;;;;;5035273;28;20822;-57
2023/01/16 13:49:00;;;;;;;24.37;23.37;;;17.00;58.20;;;;;;5035270;28;20447;-58
2023/01/16 13:51:27;;;;;;;24.40;23.30;;;17.00;58.10;;;;;;5035517;28;20480;-58